createdAt,value
2022-12-28T00:00:23.904Z,6.8
2022-12-28T00:02:25.595Z,6.8
2022-12-28T00:04:27.240Z,6.8
2022-12-28T00:06:55.819Z,6.7
2022-12-28T00:08:57.518Z,6.7
2022-12-28T00:11:08.288Z,6.7
2022-12-28T00:13:04.127Z,6.7
2022-12-28T00:15:05.832Z,6.7
2022-12-28T00:19:09.191Z,6.8
2022-12-28T00:21:10.886Z,6.7
2022-12-28T00:23:12.559Z,6.7
2022-12-28T00:25:14.254Z,6.7
2022-12-28T00:27:19.188Z,6.7
2022-12-28T00:29:20.870Z,6.7
2022-12-28T00:31:22.584Z,6.7
2022-12-28T00:33:24.259Z,6.6
2022-12-28T00:35:25.961Z,6.7
2022-12-28T00:37:27.609Z,6.7
2022-12-28T00:39:29.292Z,6.9
2022-12-28T00:41:34.233Z,6.6
2022-12-28T00:43:35.912Z,6.7
2022-12-28T00:45:37.670Z,6.8
2022-12-28T00:47:39.288Z,6.9
2022-12-28T00:49:41.005Z,6.7
2022-12-28T00:51:42.674Z,6.8
2022-12-28T00:53:45.929Z,6.8
2022-12-28T00:55:50.778Z,6.7
2022-12-28T00:57:52.500Z,6.8
2022-12-28T00:59:54.169Z,6.9
2022-12-28T01:00:56.737Z,6.9
2022-12-28T01:02:58.388Z,6.9
2022-12-28T01:05:00.028Z,6.9
2022-12-28T01:07:01.749Z,6.9
2022-12-28T01:09:06.654Z,6.8
2022-12-28T01:11:08.369Z,6.8
2022-12-28T01:13:10.047Z,7
2022-12-28T01:17:13.402Z,6.9
2022-12-28T01:19:15.137Z,7
2022-12-28T01:21:16.798Z,7
2022-12-28T01:23:21.729Z,7.1
2022-12-28T01:25:23.460Z,7.1
2022-12-28T01:27:25.104Z,7.1
2022-12-28T01:29:26.808Z,7.1
2022-12-28T01:31:28.546Z,7.1
2022-12-28T01:33:30.179Z,7.1
2022-12-28T01:35:31.863Z,7.1
2022-12-28T01:37:36.793Z,7.1
2022-12-28T01:39:38.486Z,7.2
2022-12-28T01:41:40.192Z,7.2
2022-12-28T01:43:41.879Z,7.2
2022-12-28T01:45:43.564Z,7.3
2022-12-28T01:47:45.277Z,7.1
2022-12-28T01:49:46.972Z,7.3
2022-12-28T01:51:51.900Z,7.3
2022-12-28T01:53:53.584Z,7.2
2022-12-28T01:55:55.286Z,7.3
2022-12-28T01:56:57.772Z,7.4
2022-12-28T01:58:59.456Z,7.4
2022-12-28T02:01:01.333Z,7.5
2022-12-28T02:03:02.900Z,7.4
2022-12-28T02:05:07.771Z,7.4
2022-12-28T02:07:09.504Z,7.4
2022-12-28T02:09:11.184Z,7.4
2022-12-28T02:11:12.864Z,7.4
2022-12-28T02:13:14.610Z,7.4
2022-12-28T02:15:21.262Z,7.4
2022-12-28T02:17:17.976Z,7.3
2022-12-28T02:19:22.921Z,7.4
2022-12-28T02:21:24.599Z,7.3
2022-12-28T02:23:26.295Z,7.3
2022-12-28T02:25:28.046Z,7.4
2022-12-28T02:27:29.725Z,7.5
2022-12-28T02:29:31.444Z,7.4
2022-12-28T02:31:33.125Z,7.4
2022-12-28T02:33:38.068Z,7.4
2022-12-28T02:35:39.772Z,7.5
2022-12-28T02:37:41.483Z,7.5
2022-12-28T02:39:43.185Z,7.4
2022-12-28T02:41:44.871Z,7.5
2022-12-28T02:43:46.580Z,7.4
2022-12-28T02:45:48.340Z,7.3
2022-12-28T02:47:53.230Z,7.2
2022-12-28T02:49:54.914Z,7.3
2022-12-28T02:51:56.600Z,7.3
2022-12-28T02:52:59.131Z,7.1
2022-12-28T02:57:02.517Z,7.2
2022-12-28T02:59:04.254Z,7
2022-12-28T03:01:09.247Z,7.1
2022-12-28T03:03:10.919Z,7
2022-12-28T03:07:14.266Z,7.2
2022-12-28T03:09:15.959Z,7.2
2022-12-28T03:11:17.661Z,7.1
2022-12-28T03:13:19.358Z,7.2
2022-12-28T03:15:24.303Z,7.2
2022-12-28T03:17:26.010Z,7.1
2022-12-28T03:19:27.696Z,7
2022-12-28T03:21:29.395Z,7.2
2022-12-28T03:23:31.112Z,7
2022-12-28T03:25:32.823Z,7.1
2022-12-28T03:27:34.516Z,7.1
2022-12-28T03:29:39.441Z,7.2
2022-12-28T03:31:41.135Z,7.2
2022-12-28T03:33:42.866Z,7.2
2022-12-28T03:35:44.572Z,7.2
2022-12-28T03:37:46.240Z,7.2
2022-12-28T03:39:47.943Z,7.1
2022-12-28T03:41:49.652Z,7.1
2022-12-28T03:43:54.576Z,7.2
2022-12-28T03:45:56.416Z,7.3
2022-12-28T03:47:58.006Z,7.3
2022-12-28T03:50:26.607Z,7.3
2022-12-28T03:52:28.358Z,7.2
2022-12-28T03:54:30.060Z,7.2
2022-12-28T03:56:34.983Z,7.3
2022-12-28T03:58:36.692Z,7.3
2022-12-28T04:00:38.387Z,7.3
2022-12-28T04:02:40.217Z,7.4
2022-12-28T04:04:41.765Z,7.2
2022-12-28T04:06:43.484Z,7.4
2022-12-28T04:08:45.195Z,7.3
2022-12-28T04:10:50.152Z,7.4
2022-12-28T04:12:51.835Z,7.4
2022-12-28T04:14:53.550Z,7.4
2022-12-28T04:16:55.256Z,7.4
2022-12-28T04:18:56.976Z,7.5
2022-12-28T04:20:58.687Z,7.4
2022-12-28T04:23:00.377Z,7.5
2022-12-28T04:25:05.289Z,7.5
2022-12-28T04:27:06.993Z,7.5
2022-12-28T04:29:08.731Z,7.5
2022-12-28T04:33:12.140Z,7.6
2022-12-28T04:35:13.836Z,7.6
2022-12-28T04:37:15.562Z,7.7
2022-12-28T04:39:20.519Z,7.7
2022-12-28T04:41:22.209Z,7.7
2022-12-28T04:43:23.911Z,7.7
2022-12-28T04:44:26.368Z,7.7
2022-12-28T04:46:28.160Z,7.7
2022-12-28T04:48:29.803Z,7.7
2022-12-28T04:50:31.531Z,7.8
2022-12-28T04:52:36.447Z,7.8
2022-12-28T04:54:38.156Z,7.7
2022-12-28T04:56:39.898Z,7.8
2022-12-28T04:58:41.594Z,8
2022-12-28T05:00:43.330Z,7.9
2022-12-28T05:02:46.487Z,7.8
2022-12-28T05:04:46.727Z,8
2022-12-28T05:10:55.128Z,8
2022-12-28T05:12:56.845Z,8.1
2022-12-28T05:17:00.321Z,8
2022-12-28T05:19:02.027Z,8.2
2022-12-28T05:21:06.951Z,8.1
2022-12-28T05:29:13.869Z,8.2
2022-12-28T05:31:15.603Z,8.3
2022-12-28T05:33:17.299Z,8.4
2022-12-28T05:35:22.285Z,8.3
2022-12-28T05:37:24.011Z,8.4
2022-12-28T05:39:25.725Z,8.3
2022-12-28T05:40:28.207Z,8.4
2022-12-28T05:42:29.938Z,8.3
2022-12-28T05:44:31.709Z,8.3
2022-12-28T05:46:33.475Z,8.3
2022-12-28T05:48:38.355Z,8.4
2022-12-28T05:50:40.076Z,8.4
2022-12-28T05:52:41.780Z,8.4
2022-12-28T05:54:43.511Z,8.5
2022-12-28T05:56:45.243Z,8.5
2022-12-28T05:58:46.964Z,8.5
2022-12-28T06:00:48.721Z,8.5
2022-12-28T06:02:53.799Z,8.5
2022-12-28T06:04:55.401Z,8.5
2022-12-28T06:06:57.140Z,8.5
2022-12-28T06:08:58.848Z,8.6
2022-12-28T06:11:00.584Z,8.5
2022-12-28T06:15:04.040Z,8.5
2022-12-28T06:17:09.004Z,8.4
2022-12-28T06:19:10.746Z,8.6
2022-12-28T06:21:12.473Z,8.4
2022-12-28T06:23:14.205Z,8.5
2022-12-28T06:25:15.951Z,8.5
2022-12-28T06:27:17.679Z,8.6
2022-12-28T06:29:19.371Z,8.6
2022-12-28T06:31:24.395Z,8.5
2022-12-28T06:33:26.109Z,8.6
2022-12-28T06:35:28.062Z,8.7
2022-12-28T06:36:30.543Z,8.6
2022-12-28T06:38:32.282Z,8.7
2022-12-28T06:41:02.828Z,8.6
2022-12-28T06:44:44.691Z,8.7
2022-12-28T06:46:43.978Z,8.7
2022-12-28T06:48:45.713Z,8.6
2022-12-28T06:50:47.415Z,8.7
2022-12-28T06:52:49.162Z,8.8
2022-12-28T06:54:50.903Z,8.8
2022-12-28T06:56:52.632Z,8.7
2022-12-28T06:59:02.802Z,8.8
2022-12-28T07:00:59.491Z,8.8
2022-12-28T07:03:01.265Z,8.8
2022-12-28T07:07:04.549Z,8.8
2022-12-28T07:09:06.266Z,8.8
2022-12-28T07:11:08.073Z,8.8
2022-12-28T07:13:12.994Z,8.7
2022-12-28T07:15:14.747Z,8.8
2022-12-28T07:17:16.474Z,8.9
2022-12-28T07:19:18.200Z,8.7
2022-12-28T07:21:19.959Z,8.9
2022-12-28T07:23:21.697Z,8.9
2022-12-28T07:25:23.452Z,8.8
2022-12-28T07:27:28.408Z,8.8
2022-12-28T07:29:30.163Z,8.9
2022-12-28T07:31:31.918Z,8.8
2022-12-28T07:34:00.563Z,8.9
2022-12-28T07:42:10.734Z,9
2022-12-28T07:44:12.441Z,8.9
2022-12-28T07:46:14.352Z,9
2022-12-28T07:48:15.950Z,9
2022-12-28T07:50:17.703Z,9
2022-12-28T07:52:19.437Z,8.9
2022-12-28T07:54:24.425Z,8.9
2022-12-28T07:56:26.145Z,8.9
2022-12-28T07:58:27.899Z,9
2022-12-28T08:00:29.634Z,9
2022-12-28T08:04:33.113Z,9
2022-12-28T08:06:34.881Z,9
2022-12-28T08:08:39.866Z,9
2022-12-28T08:10:41.583Z,9
2022-12-28T08:16:46.841Z,9
2022-12-28T08:18:48.562Z,9
2022-12-28T08:20:50.321Z,9
2022-12-28T08:22:55.286Z,9
2022-12-28T08:24:57.040Z,9
2022-12-28T08:26:58.793Z,9.1
2022-12-28T08:32:04.750Z,9.1
2022-12-28T08:34:06.499Z,9
2022-12-28T08:36:11.520Z,9.1
2022-12-28T08:38:13.227Z,9.1
2022-12-28T08:40:14.947Z,9.1
2022-12-28T08:42:16.710Z,9.1
2022-12-28T08:44:18.468Z,9.1
2022-12-28T08:46:20.384Z,9.2
2022-12-28T08:48:21.945Z,9.1
2022-12-28T08:50:31.567Z,9.1
2022-12-28T08:52:28.633Z,9.1
2022-12-28T08:54:30.398Z,9.1
2022-12-28T08:56:32.125Z,9.3
2022-12-28T08:58:33.855Z,9.1
2022-12-28T09:00:35.593Z,9.2
2022-12-28T09:02:37.561Z,9.2
2022-12-28T09:04:42.365Z,9.1
2022-12-28T09:06:44.039Z,9.1
2022-12-28T09:09:04.457Z,9.2
2022-12-28T09:10:47.548Z,9.2
2022-12-28T09:12:49.314Z,9.2
2022-12-28T09:14:51.020Z,9.3
2022-12-28T09:16:52.791Z,9.3
2022-12-28T09:18:57.724Z,9.2
2022-12-28T09:20:59.459Z,9.3
2022-12-28T09:23:01.209Z,9.2
2022-12-28T09:24:03.675Z,9.3
2022-12-28T09:28:07.151Z,9.3
2022-12-28T09:30:08.939Z,9.2
2022-12-28T09:32:13.880Z,9.3
2022-12-28T09:34:37.652Z,9.3
2022-12-28T09:36:17.372Z,9.3
2022-12-28T09:38:19.116Z,9.3
2022-12-28T09:40:20.888Z,9.3
2022-12-28T09:42:22.608Z,9.4
2022-12-28T09:44:24.362Z,9.4
2022-12-28T09:46:29.336Z,9.4
2022-12-28T09:48:31.116Z,9.5
2022-12-28T09:50:32.820Z,9.4
2022-12-28T09:52:34.563Z,9.5
2022-12-28T09:54:36.285Z,9.4
2022-12-28T09:56:38.043Z,9.5
2022-12-28T09:58:42.842Z,9.5
2022-12-28T10:00:44.760Z,9.3
2022-12-28T10:02:46.550Z,9.4
2022-12-28T10:04:49.540Z,9.5
2022-12-28T10:06:50.012Z,9.4
2022-12-28T10:08:51.762Z,9.5
2022-12-28T10:10:53.510Z,9.4
2022-12-28T10:12:55.247Z,9.5
2022-12-28T10:15:00.261Z,9.4
2022-12-28T10:17:01.987Z,9.5
2022-12-28T10:19:03.751Z,9.5
2022-12-28T10:22:07.988Z,9.4
2022-12-28T10:32:19.920Z,9.4
2022-12-28T10:36:28.132Z,9.5
2022-12-28T10:44:40.422Z,9.5
2022-12-28T10:46:35.401Z,9.5
2022-12-28T10:48:37.153Z,9.4
2022-12-28T10:50:38.894Z,9.5
2022-12-28T10:52:40.660Z,9.5
2022-12-28T10:54:42.426Z,9.5
2022-12-28T10:56:47.385Z,9.4
2022-12-28T10:58:49.134Z,9.4
2022-12-28T11:00:52.475Z,9.5
2022-12-28T11:02:52.908Z,9.4
2022-12-28T11:04:54.391Z,9.4
2022-12-28T11:06:56.160Z,9.4
2022-12-28T11:08:57.888Z,9.4
2022-12-28T11:11:02.856Z,9.5
2022-12-28T11:13:04.626Z,9.5
2022-12-28T11:17:34.990Z,9.4
2022-12-28T11:19:36.748Z,9.5
2022-12-28T11:21:38.500Z,9.5
2022-12-28T11:23:43.491Z,9.6
2022-12-28T11:25:45.233Z,9.4
2022-12-28T11:33:52.271Z,9.6
2022-12-28T11:35:57.504Z,9.5
2022-12-28T11:42:37.297Z,9.6
2022-12-28T11:44:04.262Z,9.6
2022-12-28T11:46:06.059Z,9.6
2022-12-28T11:52:14.484Z,9.6
2022-12-28T11:54:16.231Z,9.6
2022-12-28T11:56:17.999Z,9.5
2022-12-28T11:58:19.741Z,9.7
2022-12-28T12:00:23.134Z,9.6
2022-12-28T12:02:23.289Z,9.7
2022-12-28T12:04:24.988Z,9.6
2022-12-28T12:06:34.156Z,9.6
2022-12-28T12:08:31.733Z,9.6
2022-12-28T12:10:33.494Z,9.7
2022-12-28T12:11:35.990Z,9.7
2022-12-28T12:13:37.740Z,9.7
2022-12-28T12:15:39.461Z,9.6
2022-12-28T12:17:42.954Z,9.7
2022-12-28T12:19:46.208Z,9.7
2022-12-28T12:21:47.971Z,9.6
2022-12-28T12:23:49.726Z,9.6
2022-12-28T12:25:51.490Z,9.7
2022-12-28T12:27:53.220Z,9.7
2022-12-28T12:29:54.975Z,9.6
2022-12-28T12:31:56.739Z,9.6
2022-12-28T12:34:03.257Z,9.6
2022-12-28T12:36:04.970Z,9.7
2022-12-28T12:38:06.711Z,9.7
2022-12-28T12:42:10.258Z,9.8
2022-12-28T12:46:13.796Z,9.8
2022-12-28T12:50:20.507Z,9.6
2022-12-28T12:52:22.234Z,9.7
2022-12-28T12:54:24.005Z,9.6
2022-12-28T12:56:25.774Z,9.7
2022-12-28T12:58:27.552Z,9.7
2022-12-28T13:00:29.300Z,9.8
2022-12-28T13:02:34.534Z,9.8
2022-12-28T13:04:36.841Z,9.7
2022-12-28T13:06:38.602Z,9.6
2022-12-28T13:07:41.116Z,9.7
2022-12-28T13:09:42.878Z,9.6
2022-12-28T13:11:44.636Z,9.7
2022-12-28T13:13:46.375Z,9.6
2022-12-28T13:15:51.426Z,9.7
2022-12-28T13:17:55.449Z,9.8
2022-12-28T13:19:54.873Z,9.7
2022-12-28T13:21:56.631Z,9.7
2022-12-28T13:23:58.367Z,9.8
2022-12-28T13:26:00.132Z,9.7
2022-12-28T13:28:01.878Z,9.8
2022-12-28T13:30:06.903Z,9.8
2022-12-28T13:32:08.633Z,9.7
2022-12-28T13:34:10.375Z,9.6
2022-12-28T13:36:12.149Z,9.7
2022-12-28T13:38:13.900Z,9.7
2022-12-28T13:40:15.674Z,9.7
2022-12-28T13:42:17.423Z,9.7
2022-12-28T13:44:22.426Z,9.6
2022-12-28T13:46:24.235Z,9.6
2022-12-28T13:48:25.932Z,9.7
2022-12-28T13:52:29.450Z,9.7
2022-12-28T13:54:31.196Z,9.7
2022-12-28T13:56:32.958Z,9.7
2022-12-28T13:58:37.955Z,9.8
2022-12-28T14:00:39.723Z,9.7
2022-12-28T14:02:41.473Z,9.7
2022-12-28T14:03:46.563Z,9.8
2022-12-28T14:05:45.754Z,9.8
2022-12-28T14:07:47.494Z,9.7
2022-12-28T14:09:49.246Z,9.7
2022-12-28T14:11:54.262Z,9.7
2022-12-28T14:13:55.975Z,9.8
2022-12-28T14:17:59.496Z,9.7
2022-12-28T14:20:01.290Z,9.6
2022-12-28T14:22:03.030Z,9.8
2022-12-28T14:24:04.783Z,9.8
2022-12-28T14:26:09.762Z,9.8
2022-12-28T14:28:11.558Z,9.7
2022-12-28T14:30:13.278Z,9.7
2022-12-28T14:32:15.029Z,9.8
2022-12-28T14:34:17.547Z,9.7
2022-12-28T14:36:18.548Z,9.9
2022-12-28T14:38:20.296Z,9.8
2022-12-28T14:44:28.827Z,9.9
2022-12-28T14:46:30.617Z,9.8
2022-12-28T14:48:32.331Z,9.8
2022-12-28T14:50:34.173Z,9.7
2022-12-28T14:54:40.850Z,9.9
2022-12-28T14:56:42.608Z,9.8
2022-12-28T15:01:13.019Z,9.8
2022-12-28T15:05:16.472Z,9.7
2022-12-28T15:07:21.521Z,9.8
2022-12-28T15:09:23.275Z,9.8
2022-12-28T15:11:25.023Z,9.9
2022-12-28T15:13:26.785Z,9.7
2022-12-28T15:15:28.575Z,9.8
2022-12-28T15:17:33.442Z,9.8
2022-12-28T15:19:32.043Z,9.9
2022-12-28T15:21:37.047Z,9.7
2022-12-28T15:23:38.815Z,9.8
2022-12-28T15:25:40.609Z,9.8
2022-12-28T15:27:42.328Z,9.8
2022-12-28T15:30:06.616Z,9.7
2022-12-28T15:31:45.972Z,9.8
2022-12-28T15:33:47.639Z,9.9
2022-12-28T15:35:52.617Z,9.8
2022-12-28T15:39:56.242Z,9.8
2022-12-28T15:41:57.908Z,9.7
2022-12-28T15:43:59.649Z,9.9
2022-12-28T15:46:01.387Z,9.8
2022-12-28T15:48:03.176Z,9.8
2022-12-28T15:50:08.172Z,9.9
2022-12-28T15:52:09.895Z,9.9
2022-12-28T15:54:11.661Z,9.9
2022-12-28T15:59:17.693Z,9.9
2022-12-28T16:01:19.586Z,9.9
2022-12-28T16:05:26.190Z,9.9
2022-12-28T16:07:27.978Z,9.9
2022-12-28T16:09:29.733Z,10
2022-12-28T16:11:31.479Z,10
2022-12-28T16:13:33.258Z,10.1
2022-12-28T16:15:35.020Z,10.1
2022-12-28T16:17:51.133Z,10.1
2022-12-28T16:19:41.807Z,10.1
2022-12-28T16:21:43.566Z,10.1
2022-12-28T16:23:45.349Z,10.1
2022-12-28T16:25:47.112Z,10
2022-12-28T16:27:48.892Z,10.1
2022-12-28T16:31:55.737Z,10
2022-12-28T16:33:57.427Z,9.9
2022-12-28T16:35:59.874Z,10
2022-12-28T16:38:00.935Z,10
2022-12-28T16:40:02.744Z,9.8
2022-12-28T16:44:06.238Z,9.8
2022-12-28T16:46:11.354Z,9.8
2022-12-28T16:50:14.771Z,9.8
2022-12-28T16:51:17.281Z,9.6
2022-12-28T16:53:24.479Z,9.7
2022-12-28T16:55:20.796Z,9.6
2022-12-28T16:57:22.564Z,9.6
2022-12-28T16:59:27.542Z,9.6
2022-12-28T17:01:29.513Z,9.7
2022-12-28T17:03:31.221Z,9.7
2022-12-28T17:05:32.826Z,9.6
2022-12-28T17:07:34.581Z,9.6
2022-12-28T17:09:36.354Z,9.6
2022-12-28T17:11:38.115Z,9.5
2022-12-28T17:13:43.096Z,9.4
2022-12-28T17:15:44.828Z,9.4
2022-12-28T17:17:46.597Z,9.4
2022-12-28T17:19:48.348Z,9.5
2022-12-28T17:21:50.149Z,9.5
2022-12-28T17:25:53.606Z,9.6
2022-12-28T17:27:58.572Z,9.5
2022-12-28T17:30:00.384Z,9.6
2022-12-28T17:32:02.247Z,9.7
2022-12-28T17:38:07.360Z,9.4
2022-12-28T17:40:09.103Z,9.5
2022-12-28T17:42:14.087Z,9.5
2022-12-28T17:44:15.840Z,9.5
2022-12-28T17:46:17.593Z,9.5
2022-12-28T17:47:20.059Z,9.4
2022-12-28T17:49:21.828Z,9.5
2022-12-28T17:51:23.548Z,9.3
2022-12-28T17:53:25.310Z,9.3
2022-12-28T17:55:30.285Z,9.4
2022-12-28T17:57:38.320Z,9.5
2022-12-28T17:59:33.781Z,9.4
2022-12-28T18:03:37.355Z,9.4
2022-12-28T18:05:39.010Z,9.5
2022-12-28T18:07:40.753Z,9.5
2022-12-28T18:09:45.750Z,9.4
2022-12-28T18:11:47.497Z,9.5
2022-12-28T18:13:49.261Z,9.5
2022-12-28T18:15:50.977Z,9.5
2022-12-28T18:17:52.727Z,9.5
2022-12-28T18:19:54.493Z,9.5
2022-12-28T18:21:56.222Z,9.6
2022-12-28T18:24:01.202Z,9.5
2022-12-28T18:26:04.512Z,9.6
2022-12-28T18:28:06.196Z,9.6
2022-12-28T18:30:07.962Z,9.5
2022-12-28T18:32:09.695Z,9.6
2022-12-28T18:34:11.444Z,9.5
2022-12-28T18:36:17.314Z,9.5
2022-12-28T18:38:18.194Z,9.5
2022-12-28T18:40:19.929Z,9.5
2022-12-28T18:42:21.657Z,9.5
2022-12-28T18:44:50.224Z,9.4
2022-12-28T18:46:52.304Z,9.6
2022-12-28T18:48:53.762Z,9.5
2022-12-28T18:50:58.773Z,9.5
2022-12-28T18:53:00.497Z,9.3
2022-12-28T18:55:02.246Z,9.5
2022-12-28T18:57:04.023Z,9.4
2022-12-28T18:59:05.729Z,9.4
2022-12-28T19:01:07.580Z,9.3
2022-12-28T19:03:09.388Z,9.3
2022-12-28T19:09:17.699Z,9.2
2022-12-28T19:11:19.448Z,9.3
2022-12-28T19:19:29.700Z,9.2
2022-12-28T19:21:31.487Z,9.2
2022-12-28T19:23:33.211Z,9.3
2022-12-28T19:25:34.955Z,9.2
2022-12-28T19:27:36.712Z,9.2
2022-12-28T19:29:38.449Z,9.3
2022-12-28T19:31:40.342Z,9.2
2022-12-28T19:33:45.200Z,9.3
2022-12-28T19:35:46.965Z,9.2
2022-12-28T19:37:48.690Z,9.4
2022-12-28T19:38:51.193Z,9.4
2022-12-28T19:40:52.925Z,9.3
2022-12-28T19:42:54.699Z,9.3
2022-12-28T19:44:56.453Z,9.4
2022-12-28T19:47:01.435Z,9.4
2022-12-28T19:49:03.198Z,9.5
2022-12-28T19:51:04.903Z,9.6
2022-12-28T19:53:06.670Z,9.5
2022-12-28T19:55:08.402Z,9.6
2022-12-28T19:57:10.166Z,9.6
2022-12-28T19:59:11.924Z,9.6
2022-12-28T20:01:16.916Z,9.6
2022-12-28T20:03:18.783Z,9.5
2022-12-28T20:05:20.395Z,9.5
2022-12-28T20:07:22.139Z,9.7
2022-12-28T20:09:23.897Z,9.6
2022-12-28T20:11:25.665Z,9.7
2022-12-28T20:13:27.416Z,9.6
2022-12-28T20:15:32.397Z,9.6
2022-12-28T20:17:34.133Z,9.6
2022-12-28T20:19:35.900Z,9.8
2022-12-28T20:21:37.656Z,9.5
2022-12-28T20:23:39.425Z,9.7
2022-12-28T20:25:41.168Z,9.7
2022-12-28T20:27:42.925Z,9.8
2022-12-28T20:29:47.923Z,9.8
2022-12-28T20:31:49.741Z,9.6
2022-12-28T20:33:51.435Z,9.9
2022-12-28T20:34:53.915Z,9.7
2022-12-28T20:38:57.452Z,9.8
2022-12-28T20:40:59.206Z,9.8
2022-12-28T20:43:04.171Z,9.8
2022-12-28T20:45:05.934Z,9.9
2022-12-28T20:47:07.738Z,10
2022-12-28T20:49:09.458Z,9.9
2022-12-28T20:51:11.224Z,10
2022-12-28T20:53:12.954Z,10
2022-12-28T20:57:19.700Z,10.1
2022-12-28T20:59:21.487Z,10.1
2022-12-28T21:05:26.729Z,10.1
2022-12-28T21:07:28.488Z,10.3
2022-12-28T21:11:35.262Z,10.3
2022-12-28T21:13:43.750Z,10.2
2022-12-28T21:15:38.781Z,10.4
2022-12-28T21:19:42.350Z,10.3
2022-12-28T21:25:50.852Z,10.5
2022-12-28T21:30:56.844Z,10.4
2022-12-28T21:32:58.621Z,10.4
2022-12-28T21:35:00.419Z,10.5
2022-12-28T21:37:02.145Z,10.5
2022-12-28T21:39:07.154Z,10.5
2022-12-28T21:41:08.945Z,10.5
2022-12-28T21:43:10.724Z,10.5
2022-12-28T21:45:12.481Z,10.5
2022-12-28T21:47:14.328Z,10.5
2022-12-28T21:49:16.000Z,10.6
2022-12-28T21:51:17.759Z,10.6
2022-12-28T21:53:22.783Z,10.6
2022-12-28T21:55:24.551Z,10.5
2022-12-28T21:57:26.303Z,10.6
2022-12-28T21:59:28.080Z,10.7
2022-12-28T22:01:29.979Z,10.5
2022-12-28T22:03:31.694Z,10.6
2022-12-28T22:05:33.416Z,10.6
2022-12-28T22:07:38.397Z,10.6
2022-12-28T22:09:40.191Z,10.6
2022-12-28T22:15:45.496Z,10.7
2022-12-28T22:17:47.298Z,10.8
2022-12-28T22:19:49.047Z,10.7
2022-12-28T22:21:54.075Z,10.6
2022-12-28T22:23:55.843Z,10.6
2022-12-28T22:28:26.198Z,10.5
2022-12-28T22:36:36.552Z,10.7
2022-12-28T22:38:38.355Z,10.6
2022-12-28T22:40:40.096Z,10.8
2022-12-28T22:42:41.854Z,10.6
2022-12-28T22:44:43.615Z,10.7
2022-12-28T22:46:45.397Z,10.7
2022-12-28T22:59:02.898Z,10.9
2022-12-28T23:01:01.208Z,10.9
2022-12-28T23:03:06.192Z,10.9
2022-12-28T23:05:07.839Z,10.9
2022-12-28T23:07:09.608Z,11.1
2022-12-28T23:09:11.414Z,11
2022-12-28T23:15:16.705Z,11.1
2022-12-28T23:17:21.732Z,11.1
2022-12-28T23:19:23.508Z,11.2
2022-12-28T23:21:25.275Z,11.2
2022-12-28T23:22:27.766Z,11
2022-12-28T23:24:29.555Z,11.1
2022-12-28T23:26:31.340Z,11.1
2022-12-28T23:28:33.131Z,11.1
2022-12-28T23:30:38.150Z,11.1
2022-12-28T23:32:39.868Z,11.1
2022-12-28T23:38:45.254Z,11.2
2022-12-28T23:40:46.987Z,11.2
2022-12-28T23:42:48.788Z,11.3
2022-12-28T23:46:58.922Z,11.3
2022-12-28T23:48:57.321Z,11.3
2022-12-28T23:50:59.123Z,11.3
2022-12-28T23:53:00.899Z,11.4
2022-12-28T23:59:09.451Z,11.5
